Allouez, Michigan
Current Conditions -  °F | °C
As of 7:53 PM on Thursday 30 Oct 2014 (Local Time) from KCMX Reporting Station
Light Rain Light Rain  
Wind Chill: 26°   Ceiling: 1000
Heat Index: 36°   Visibility: 7mi
Dew Point: 32°   Wind: 18mph
Humidity: 86%   Direction: 330°NNW
Pressure: 29.99"   Gusts: 25mph
Location:  47.29°N, 88.41°W
Report Text: KCMX 302353Z AUTO 33016G22KT 7SM -RA OVC010 02/00 A2999 RMK AO2 SLP167 P0005 60011 T00220000 10044 20022 53006
Loading
Personal Weather Stations






























Interactive Weather Map
Tropical Storm Tracking
New forecast layout! Learn more

10-Day Weather Forecast

Advertisements
Track Severe Weather on mobile